sensor_id;sensor_type;location;lat;lon;timestamp;temperature;humidity
4787;DHT22;62338;48.832;9.422;2023-02-28T00:00:05;-3.90;1.00
4787;DHT22;62338;48.832;9.422;2023-02-28T00:02:11;-3.90;1.00
4787;DHT22;62338;48.832;9.422;2023-02-28T00:04:14;-3.90;1.00
4787;DHT22;62338;48.832;9.422;2023-02-28T00:06:15;-3.80;1.00
4787;DHT22;62338;48.832;9.422;2023-02-28T00:08:17;-3.80;1.00
4787;DHT22;62338;48.832;9.422;2023-02-28T00:10:25;-3.80;1.00
4787;DHT22;62338;48.832;9.422;2023-02-28T00:12:28;-3.90;5.40
4787;DHT22;62338;48.832;9.422;2023-02-28T00:14:30;-3.90;27.50
4787;DHT22;62338;48.832;9.422;2023-02-28T00:16:32;-3.90;60.10
4787;DHT22;62338;48.832;9.422;2023-02-28T00:18:33;-3.90;99.90
4787;DHT22;62338;48.832;9.422;2023-02-28T00:20:35;-3.90;99.90
4787;DHT22;62338;48.832;9.422;2023-02-28T00:22:42;-3.90;99.90
4787;DHT22;62338;48.832;9.422;2023-02-28T00:24:45;-3.90;99.90
4787;DHT22;62338;48.832;9.422;2023-02-28T00:26:47;-3.90;99.90
4787;DHT22;62338;48.832;9.422;2023-02-28T00:28:49;-3.90;99.90
4787;DHT22;62338;48.832;9.422;2023-02-28T00:30:50;-3.90;99.90
4787;DHT22;62338;48.832;9.422;2023-02-28T00:32:52;-3.90;99.90
4787;DHT22;62338;48.832;9.422;2023-02-28T00:34:54;-3.90;99.90
4787;DHT22;62338;48.832;9.422;2023-02-28T00:36:56;-3.90;99.90
4787;DHT22;62338;48.832;9.422;2023-02-28T00:38:58;-3.90;99.90
4787;DHT22;62338;48.832;9.422;2023-02-28T00:41:00;-3.90;99.90
4787;DHT22;62338;48.832;9.422;2023-02-28T00:43:06;-3.90;99.90
4787;DHT22;62338;48.832;9.422;2023-02-28T00:45:08;-3.90;99.90
4787;DHT22;62338;48.832;9.422;2023-02-28T00:47:10;-3.90;99.90
4787;DHT22;62338;48.832;9.422;2023-02-28T00:49:12;-4.00;99.90
4787;DHT22;62338;48.832;9.422;2023-02-28T00:51:14;-4.00;99.90
4787;DHT22;62338;48.832;9.422;2023-02-28T00:53:15;-4.00;99.90
4787;DHT22;62338;48.832;9.422;2023-02-28T00:55:17;-4.00;99.90
4787;DHT22;62338;48.832;9.422;2023-02-28T00:57:20;-4.00;1.00
4787;DHT22;62338;48.832;9.422;2023-02-28T00:59:22;-4.00;1.00
4787;DHT22;62338;48.832;9.422;2023-02-28T01:01:23;-4.00;1.00
4787;DHT22;62338;48.832;9.422;2023-02-28T01:03:25;-4.00;1.00
4787;DHT22;62338;48.832;9.422;2023-02-28T01:05:27;-4.00;1.00
4787;DHT22;62338;48.832;9.422;2023-02-28T01:07:29;-4.10;1.00
4787;DHT22;62338;48.832;9.422;2023-02-28T01:09:30;-4.00;1.00
4787;DHT22;62338;48.832;9.422;2023-02-28T01:11:33;-4.00;1.00
4787;DHT22;62338;48.832;9.422;2023-02-28T01:13:35;-4.00;1.00
4787;DHT22;62338;48.832;9.422;2023-02-28T01:15:49;-4.00;1.00
4787;DHT22;62338;48.832;9.422;2023-02-28T01:17:52;-4.00;1.00
4787;DHT22;62338;48.832;9.422;2023-02-28T01:19:55;-4.00;1.00
4787;DHT22;62338;48.832;9.422;2023-02-28T01:22:00;-4.00;1.00
4787;DHT22;62338;48.832;9.422;2023-02-28T01:24:04;-4.00;1.00
4787;DHT22;62338;48.832;9.422;2023-02-28T01:26:07;-4.00;1.00
4787;DHT22;62338;48.832;9.422;2023-02-28T01:28:10;-4.00;1.00
4787;DHT22;62338;48.832;9.422;2023-02-28T01:30:12;-4.00;1.00
4787;DHT22;62338;48.832;9.422;2023-02-28T01:32:13;-4.00;1.00
4787;DHT22;62338;48.832;9.422;2023-02-28T01:34:15;-4.10;1.00
4787;DHT22;62338;48.832;9.422;2023-02-28T01:36:20;-4.10;1.00
4787;DHT22;62338;48.832;9.422;2023-02-28T01:38:22;-4.10;1.00
4787;DHT22;62338;48.832;9.422;2023-02-28T01:40:24;-4.10;1.00
4787;DHT22;62338;48.832;9.422;2023-02-28T01:42:26;-4.10;1.00
4787;DHT22;62338;48.832;9.422;2023-02-28T01:47:03;-4.10;1.00
4787;DHT22;62338;48.832;9.422;2023-02-28T01:49:11;-4.10;1.00
4787;DHT22;62338;48.832;9.422;2023-02-28T01:51:33;-4.10;1.00
4787;DHT22;62338;48.832;9.422;2023-02-28T01:53:39;-4.10;1.00
4787;DHT22;62338;48.832;9.422;2023-02-28T01:55:47;-4.10;1.00
4787;DHT22;62338;48.832;9.422;2023-02-28T01:57:52;-4.00;1.00
4787;DHT22;62338;48.832;9.422;2023-02-28T02:00:03;-4.00;1.00
4787;DHT22;62338;48.832;9.422;2023-02-28T02:02:07;-4.00;1.00
4787;DHT22;62338;48.832;9.422;2023-02-28T02:04:09;-4.00;1.00
4787;DHT22;62338;48.832;9.422;2023-02-28T02:06:11;-4.00;1.00
4787;DHT22;62338;48.832;9.422;2023-02-28T02:08:24;-3.90;1.00
4787;DHT22;62338;48.832;9.422;2023-02-28T02:10:44;-3.90;1.00
4787;DHT22;62338;48.832;9.422;2023-02-28T02:17:57;-3.90;1.00
4787;DHT22;62338;48.832;9.422;2023-02-28T02:27:20;-3.80;1.00
4787;DHT22;62338;48.832;9.422;2023-02-28T02:32:35;-3.70;1.00
4787;DHT22;62338;48.832;9.422;2023-02-28T02:34:45;-3.80;1.00
4787;DHT22;62338;48.832;9.422;2023-02-28T02:36:57;-3.70;1.00
4787;DHT22;62338;48.832;9.422;2023-02-28T02:39:10;-3.80;1.00
4787;DHT22;62338;48.832;9.422;2023-02-28T02:44:10;-3.80;1.00
4787;DHT22;62338;48.832;9.422;2023-02-28T02:46:21;-3.80;1.00
4787;DHT22;62338;48.832;9.422;2023-02-28T02:48:29;-3.80;1.00
4787;DHT22;62338;48.832;9.422;2023-02-28T02:50:49;-3.80;1.00
4787;DHT22;62338;48.832;9.422;2023-02-28T02:52:55;-3.80;1.00
4787;DHT22;62338;48.832;9.422;2023-02-28T02:54:59;-3.90;1.00
4787;DHT22;62338;48.832;9.422;2023-02-28T02:57:08;-3.90;1.00
4787;DHT22;62338;48.832;9.422;2023-02-28T02:59:13;-3.80;1.00
4787;DHT22;62338;48.832;9.422;2023-02-28T03:01:19;-3.80;1.00
4787;DHT22;62338;48.832;9.422;2023-02-28T03:03:31;-3.80;1.00
4787;DHT22;62338;48.832;9.422;2023-02-28T03:05:44;-3.80;1.00
4787;DHT22;62338;48.832;9.422;2023-02-28T03:07:47;-3.80;1.00
4787;DHT22;62338;48.832;9.422;2023-02-28T03:09:53;-3.80;1.00
4787;DHT22;62338;48.832;9.422;2023-02-28T03:11:56;-3.80;1.00
4787;DHT22;62338;48.832;9.422;2023-02-28T03:14:07;-3.80;1.00
4787;DHT22;62338;48.832;9.422;2023-02-28T03:21:36;-3.70;1.00
4787;DHT22;62338;48.832;9.422;2023-02-28T03:23:52;-3.70;1.00
4787;DHT22;62338;48.832;9.422;2023-02-28T03:26:06;-3.80;1.00
4787;DHT22;62338;48.832;9.422;2023-02-28T03:28:24;-3.80;1.00
4787;DHT22;62338;48.832;9.422;2023-02-28T03:32:58;-3.80;1.00
4787;DHT22;62338;48.832;9.422;2023-02-28T03:35:14;-3.70;1.00
4787;DHT22;62338;48.832;9.422;2023-02-28T03:37:24;-3.70;1.00
4787;DHT22;62338;48.832;9.422;2023-02-28T03:39:34;-3.70;1.00
4787;DHT22;62338;48.832;9.422;2023-02-28T03:41:45;-3.70;1.00
4787;DHT22;62338;48.832;9.422;2023-02-28T03:46:21;-3.70;1.00
4787;DHT22;62338;48.832;9.422;2023-02-28T03:48:36;-3.70;1.00
4787;DHT22;62338;48.832;9.422;2023-02-28T03:50:42;-3.70;1.00
4787;DHT22;62338;48.832;9.422;2023-02-28T03:53:10;-3.70;1.00
4787;DHT22;62338;48.832;9.422;2023-02-28T03:55:14;-3.70;1.00
4787;DHT22;62338;48.832;9.422;2023-02-28T03:59:34;-3.70;1.00
4787;DHT22;62338;48.832;9.422;2023-02-28T04:01:44;-3.70;1.00
4787;DHT22;62338;48.832;9.422;2023-02-28T04:03:47;-3.70;1.00
4787;DHT22;62338;48.832;9.422;2023-02-28T04:05:53;-3.70;1.00
4787;DHT22;62338;48.832;9.422;2023-02-28T04:08:06;-3.70;1.00
4787;DHT22;62338;48.832;9.422;2023-02-28T04:10:09;-3.60;1.00
4787;DHT22;62338;48.832;9.422;2023-02-28T04:12:11;-3.60;1.00
4787;DHT22;62338;48.832;9.422;2023-02-28T04:14:13;-3.60;1.00
4787;DHT22;62338;48.832;9.422;2023-02-28T04:16:16;-3.60;1.00
4787;DHT22;62338;48.832;9.422;2023-02-28T04:18:34;-3.60;1.00
4787;DHT22;62338;48.832;9.422;2023-02-28T04:20:36;-3.50;1.00
4787;DHT22;62338;48.832;9.422;2023-02-28T04:22:38;-3.40;1.00
4787;DHT22;62338;48.832;9.422;2023-02-28T04:24:40;-3.40;1.00
4787;DHT22;62338;48.832;9.422;2023-02-28T04:26:47;-3.40;1.00
4787;DHT22;62338;48.832;9.422;2023-02-28T04:28:50;-3.40;1.00
4787;DHT22;62338;48.832;9.422;2023-02-28T04:30:59;-3.40;1.00
4787;DHT22;62338;48.832;9.422;2023-02-28T04:33:02;-3.40;1.00
4787;DHT22;62338;48.832;9.422;2023-02-28T04:35:04;-3.40;1.00
4787;DHT22;62338;48.832;9.422;2023-02-28T04:37:06;-3.40;1.00
4787;DHT22;62338;48.832;9.422;2023-02-28T04:39:15;-3.40;1.00
4787;DHT22;62338;48.832;9.422;2023-02-28T04:41:18;-3.30;1.00
4787;DHT22;62338;48.832;9.422;2023-02-28T04:43:20;-3.30;1.00
4787;DHT22;62338;48.832;9.422;2023-02-28T04:45:22;-3.30;1.00
4787;DHT22;62338;48.832;9.422;2023-02-28T04:47:24;-3.30;1.00
4787;DHT22;62338;48.832;9.422;2023-02-28T04:49:26;-3.30;1.00
4787;DHT22;62338;48.832;9.422;2023-02-28T04:51:27;-3.30;1.00
4787;DHT22;62338;48.832;9.422;2023-02-28T04:53:30;-3.20;1.00
4787;DHT22;62338;48.832;9.422;2023-02-28T04:55:32;-3.30;1.00
4787;DHT22;62338;48.832;9.422;2023-02-28T04:57:33;-3.30;1.00
4787;DHT22;62338;48.832;9.422;2023-02-28T04:59:35;-3.20;1.00
4787;DHT22;62338;48.832;9.422;2023-02-28T05:01:37;-3.30;1.00
4787;DHT22;62338;48.832;9.422;2023-02-28T05:03:39;-3.30;1.00
4787;DHT22;62338;48.832;9.422;2023-02-28T05:05:44;-3.30;1.00
4787;DHT22;62338;48.832;9.422;2023-02-28T05:07:46;-3.20;1.00
4787;DHT22;62338;48.832;9.422;2023-02-28T05:09:48;-3.20;1.00
4787;DHT22;62338;48.832;9.422;2023-02-28T05:11:50;-3.20;1.00
4787;DHT22;62338;48.832;9.422;2023-02-28T05:13:52;-3.10;1.00
4787;DHT22;62338;48.832;9.422;2023-02-28T05:15:55;-3.20;1.00
4787;DHT22;62338;48.832;9.422;2023-02-28T05:17:57;-3.20;1.00
4787;DHT22;62338;48.832;9.422;2023-02-28T05:19:59;-3.10;1.00
4787;DHT22;62338;48.832;9.422;2023-02-28T05:22:16;-3.10;1.00
4787;DHT22;62338;48.832;9.422;2023-02-28T05:24:20;-3.10;1.00
4787;DHT22;62338;48.832;9.422;2023-02-28T05:26:26;-3.10;1.00
4787;DHT22;62338;48.832;9.422;2023-02-28T05:28:28;-3.10;1.00
4787;DHT22;62338;48.832;9.422;2023-02-28T05:30:30;-3.10;1.00
4787;DHT22;62338;48.832;9.422;2023-02-28T05:32:33;-3.10;1.00
4787;DHT22;62338;48.832;9.422;2023-02-28T05:34:36;-3.10;1.00
4787;DHT22;62338;48.832;9.422;2023-02-28T05:36:39;-3.10;1.00
4787;DHT22;62338;48.832;9.422;2023-02-28T05:38:41;-3.10;1.00
4787;DHT22;62338;48.832;9.422;2023-02-28T05:40:42;-3.10;1.00
4787;DHT22;62338;48.832;9.422;2023-02-28T05:42:44;-3.10;1.00
4787;DHT22;62338;48.832;9.422;2023-02-28T05:44:46;-3.10;1.00
4787;DHT22;62338;48.832;9.422;2023-02-28T05:46:48;-3.10;1.00
4787;DHT22;62338;48.832;9.422;2023-02-28T05:48:50;-3.10;1.00
4787;DHT22;62338;48.832;9.422;2023-02-28T05:50:52;-3.10;1.00
4787;DHT22;62338;48.832;9.422;2023-02-28T05:52:54;-3.00;1.00
4787;DHT22;62338;48.832;9.422;2023-02-28T05:54:56;-3.00;1.00
4787;DHT22;62338;48.832;9.422;2023-02-28T05:56:58;-3.00;1.00
4787;DHT22;62338;48.832;9.422;2023-02-28T05:58:59;-3.00;1.00
4787;DHT22;62338;48.832;9.422;2023-02-28T06:01:24;-3.00;1.00
4787;DHT22;62338;48.832;9.422;2023-02-28T06:03:26;-3.00;1.00
4787;DHT22;62338;48.832;9.422;2023-02-28T06:05:28;-2.90;1.00
4787;DHT22;62338;48.832;9.422;2023-02-28T06:07:30;-2.90;1.00
4787;DHT22;62338;48.832;9.422;2023-02-28T06:09:32;-2.90;1.00
4787;DHT22;62338;48.832;9.422;2023-02-28T06:11:34;-2.90;1.00
4787;DHT22;62338;48.832;9.422;2023-02-28T06:13:36;-2.90;1.00
4787;DHT22;62338;48.832;9.422;2023-02-28T06:15:38;-2.90;1.00
4787;DHT22;62338;48.832;9.422;2023-02-28T06:17:41;-2.90;1.00
4787;DHT22;62338;48.832;9.422;2023-02-28T06:19:42;-2.80;1.00
4787;DHT22;62338;48.832;9.422;2023-02-28T06:21:45;-2.80;1.00
4787;DHT22;62338;48.832;9.422;2023-02-28T06:23:48;-2.80;1.00
4787;DHT22;62338;48.832;9.422;2023-02-28T06:25:50;-2.80;1.00
4787;DHT22;62338;48.832;9.422;2023-02-28T06:27:55;-2.80;1.00
4787;DHT22;62338;48.832;9.422;2023-02-28T06:29:57;-2.80;1.00
4787;DHT22;62338;48.832;9.422;2023-02-28T06:31:59;-2.80;1.00
4787;DHT22;62338;48.832;9.422;2023-02-28T06:34:01;-2.80;1.00
4787;DHT22;62338;48.832;9.422;2023-02-28T06:36:04;-2.70;1.00
4787;DHT22;62338;48.832;9.422;2023-02-28T06:38:06;-2.70;1.00
4787;DHT22;62338;48.832;9.422;2023-02-28T06:40:08;-2.70;1.00
4787;DHT22;62338;48.832;9.422;2023-02-28T06:42:11;-2.70;1.00
4787;DHT22;62338;48.832;9.422;2023-02-28T06:44:15;-2.70;1.00
4787;DHT22;62338;48.832;9.422;2023-02-28T06:46:17;-2.70;1.00
4787;DHT22;62338;48.832;9.422;2023-02-28T06:48:19;-2.70;1.00
4787;DHT22;62338;48.832;9.422;2023-02-28T06:50:21;-2.70;1.00
4787;DHT22;62338;48.832;9.422;2023-02-28T06:52:23;-2.70;1.00
4787;DHT22;62338;48.832;9.422;2023-02-28T06:54:25;-2.70;1.00
4787;DHT22;62338;48.832;9.422;2023-02-28T06:56:26;-2.70;1.00
4787;DHT22;62338;48.832;9.422;2023-02-28T06:58:28;-2.70;1.00
4787;DHT22;62338;48.832;9.422;2023-02-28T07:00:30;-2.60;1.00
4787;DHT22;62338;48.832;9.422;2023-02-28T07:02:32;-2.60;1.00
4787;DHT22;62338;48.832;9.422;2023-02-28T07:04:33;-2.60;1.00
4787;DHT22;62338;48.832;9.422;2023-02-28T07:06:35;-2.60;1.00
4787;DHT22;62338;48.832;9.422;2023-02-28T07:08:37;-2.50;1.00
4787;DHT22;62338;48.832;9.422;2023-02-28T07:10:39;-2.50;99.90
4787;DHT22;62338;48.832;9.422;2023-02-28T07:12:41;-2.50;99.90
4787;DHT22;62338;48.832;9.422;2023-02-28T07:14:43;-2.40;99.90
4787;DHT22;62338;48.832;9.422;2023-02-28T07:16:44;-2.30;99.90
4787;DHT22;62338;48.832;9.422;2023-02-28T07:18:47;-2.30;99.90
4787;DHT22;62338;48.832;9.422;2023-02-28T07:20:49;-2.30;99.90
4787;DHT22;62338;48.832;9.422;2023-02-28T07:22:51;-2.30;99.90
4787;DHT22;62338;48.832;9.422;2023-02-28T07:24:57;-2.20;99.90
4787;DHT22;62338;48.832;9.422;2023-02-28T07:26:59;-2.20;99.90
4787;DHT22;62338;48.832;9.422;2023-02-28T07:29:01;-2.10;99.90
4787;DHT22;62338;48.832;9.422;2023-02-28T07:31:07;-2.10;99.90
4787;DHT22;62338;48.832;9.422;2023-02-28T07:33:09;-2.10;99.90
4787;DHT22;62338;48.832;9.422;2023-02-28T07:35:10;-2.10;99.90
4787;DHT22;62338;48.832;9.422;2023-02-28T07:37:13;-2.00;99.90
4787;DHT22;62338;48.832;9.422;2023-02-28T07:39:14;-2.00;99.90
4787;DHT22;62338;48.832;9.422;2023-02-28T07:41:17;-2.00;99.90
4787;DHT22;62338;48.832;9.422;2023-02-28T07:43:19;-1.90;99.90
4787;DHT22;62338;48.832;9.422;2023-02-28T07:45:21;-2.00;99.90
4787;DHT22;62338;48.832;9.422;2023-02-28T07:47:23;-2.00;99.90
4787;DHT22;62338;48.832;9.422;2023-02-28T07:49:26;-2.00;99.90
4787;DHT22;62338;48.832;9.422;2023-02-28T07:51:27;-1.90;99.90
4787;DHT22;62338;48.832;9.422;2023-02-28T07:53:30;-1.90;61.50
4787;DHT22;62338;48.832;9.422;2023-02-28T07:55:32;-1.90;97.20
4787;DHT22;62338;48.832;9.422;2023-02-28T07:57:33;-1.80;99.90
4787;DHT22;62338;48.832;9.422;2023-02-28T07:59:35;-1.80;99.90
4787;DHT22;62338;48.832;9.422;2023-02-28T08:01:37;-1.80;96.30
4787;DHT22;62338;48.832;9.422;2023-02-28T08:03:40;-1.80;94.60
4787;DHT22;62338;48.832;9.422;2023-02-28T08:05:41;-1.70;72.90
4787;DHT22;62338;48.832;9.422;2023-02-28T08:07:43;-1.60;1.00
4787;DHT22;62338;48.832;9.422;2023-02-28T08:09:45;-1.60;1.00
4787;DHT22;62338;48.832;9.422;2023-02-28T08:11:47;-1.60;1.00
4787;DHT22;62338;48.832;9.422;2023-02-28T08:13:49;-1.50;1.00
4787;DHT22;62338;48.832;9.422;2023-02-28T08:15:50;-1.50;1.00
4787;DHT22;62338;48.832;9.422;2023-02-28T08:17:52;-1.30;1.00
4787;DHT22;62338;48.832;9.422;2023-02-28T08:19:54;-1.20;99.90
4787;DHT22;62338;48.832;9.422;2023-02-28T08:21:56;-1.10;99.90
4787;DHT22;62338;48.832;9.422;2023-02-28T08:23:58;-1.10;99.90
4787;DHT22;62338;48.832;9.422;2023-02-28T08:26:01;-1.10;99.90
4787;DHT22;62338;48.832;9.422;2023-02-28T08:28:03;-1.00;99.90
4787;DHT22;62338;48.832;9.422;2023-02-28T08:30:05;-1.00;1.00
4787;DHT22;62338;48.832;9.422;2023-02-28T08:32:07;-0.90;1.00
4787;DHT22;62338;48.832;9.422;2023-02-28T08:34:24;-0.90;1.00
4787;DHT22;62338;48.832;9.422;2023-02-28T08:36:26;-0.80;1.00
4787;DHT22;62338;48.832;9.422;2023-02-28T08:38:30;-0.80;99.90
4787;DHT22;62338;48.832;9.422;2023-02-28T08:40:32;-0.80;99.90
4787;DHT22;62338;48.832;9.422;2023-02-28T08:42:33;-0.70;1.00
4787;DHT22;62338;48.832;9.422;2023-02-28T08:44:35;-0.50;99.90
4787;DHT22;62338;48.832;9.422;2023-02-28T08:46:37;-0.50;1.00
4787;DHT22;62338;48.832;9.422;2023-02-28T08:48:39;-0.40;1.00
4787;DHT22;62338;48.832;9.422;2023-02-28T08:50:41;-0.40;1.00
4787;DHT22;62338;48.832;9.422;2023-02-28T08:52:45;-0.20;1.00
4787;DHT22;62338;48.832;9.422;2023-02-28T08:54:47;0.00;1.00
4787;DHT22;62338;48.832;9.422;2023-02-28T08:56:49;-0.10;8.30
4787;DHT22;62338;48.832;9.422;2023-02-28T08:58:52;-0.10;99.90
4787;DHT22;62338;48.832;9.422;2023-02-28T09:00:57;0.00;99.90
4787;DHT22;62338;48.832;9.422;2023-02-28T09:02:58;0.10;1.00
4787;DHT22;62338;48.832;9.422;2023-02-28T09:05:00;0.10;1.00
4787;DHT22;62338;48.832;9.422;2023-02-28T09:07:02;0.10;1.00
4787;DHT22;62338;48.832;9.422;2023-02-28T09:09:05;0.10;1.00
4787;DHT22;62338;48.832;9.422;2023-02-28T09:11:09;0.20;99.90
4787;DHT22;62338;48.832;9.422;2023-02-28T09:13:11;0.10;1.00
4787;DHT22;62338;48.832;9.422;2023-02-28T09:15:13;0.30;99.90
4787;DHT22;62338;48.832;9.422;2023-02-28T09:17:15;0.40;96.50
4787;DHT22;62338;48.832;9.422;2023-02-28T09:19:17;0.60;1.00
4787;DHT22;62338;48.832;9.422;2023-02-28T09:21:19;0.50;1.00
4787;DHT22;62338;48.832;9.422;2023-02-28T09:23:21;0.40;1.00
4787;DHT22;62338;48.832;9.422;2023-02-28T09:25:23;0.40;1.00
4787;DHT22;62338;48.832;9.422;2023-02-28T09:27:25;0.40;99.90
4787;DHT22;62338;48.832;9.422;2023-02-28T09:29:27;0.40;1.00
4787;DHT22;62338;48.832;9.422;2023-02-28T09:31:28;0.50;1.00
4787;DHT22;62338;48.832;9.422;2023-02-28T09:33:30;0.50;1.00
4787;DHT22;62338;48.832;9.422;2023-02-28T09:35:32;0.60;1.00
4787;DHT22;62338;48.832;9.422;2023-02-28T09:37:34;0.60;99.90
4787;DHT22;62338;48.832;9.422;2023-02-28T09:39:36;0.60;28.80
4787;DHT22;62338;48.832;9.422;2023-02-28T09:41:41;0.60;99.90
4787;DHT22;62338;48.832;9.422;2023-02-28T09:43:55;0.60;99.90
4787;DHT22;62338;48.832;9.422;2023-02-28T09:48:21;1.10;1.00
4787;DHT22;62338;48.832;9.422;2023-02-28T09:50:35;1.30;65.50
4787;DHT22;62338;48.832;9.422;2023-02-28T09:52:37;1.60;1.00
4787;DHT22;62338;48.832;9.422;2023-02-28T09:54:40;1.90;1.30
4787;DHT22;62338;48.832;9.422;2023-02-28T09:56:42;2.00;1.00
4787;DHT22;62338;48.832;9.422;2023-02-28T09:58:46;2.00;1.00
4787;DHT22;62338;48.832;9.422;2023-02-28T10:00:57;2.00;1.00
4787;DHT22;62338;48.832;9.422;2023-02-28T10:03:22;2.00;1.00
4787;DHT22;62338;48.832;9.422;2023-02-28T10:05:30;1.90;1.00
4787;DHT22;62338;48.832;9.422;2023-02-28T10:08:13;1.70;1.00
4787;DHT22;62338;48.832;9.422;2023-02-28T10:10:23;1.70;1.00
4787;DHT22;62338;48.832;9.422;2023-02-28T10:12:26;1.60;1.00
4787;DHT22;62338;48.832;9.422;2023-02-28T10:14:33;1.60;1.00
4787;DHT22;62338;48.832;9.422;2023-02-28T10:17:03;1.60;1.00
4787;DHT22;62338;48.832;9.422;2023-02-28T10:19:14;1.70;84.00
4787;DHT22;62338;48.832;9.422;2023-02-28T10:21:30;1.80;68.30
4787;DHT22;62338;48.832;9.422;2023-02-28T10:23:35;2.00;1.00
4787;DHT22;62338;48.832;9.422;2023-02-28T10:25:38;2.10;1.00
4787;DHT22;62338;48.832;9.422;2023-02-28T10:27:40;2.10;1.00
4787;DHT22;62338;48.832;9.422;2023-02-28T10:29:44;2.20;1.00
4787;DHT22;62338;48.832;9.422;2023-02-28T10:31:46;2.70;99.90
4787;DHT22;62338;48.832;9.422;2023-02-28T10:33:48;3.10;99.90
4787;DHT22;62338;48.832;9.422;2023-02-28T10:35:51;3.30;1.00
4787;DHT22;62338;48.832;9.422;2023-02-28T10:37:55;3.30;1.00
4787;DHT22;62338;48.832;9.422;2023-02-28T10:39:58;3.30;1.00
4787;DHT22;62338;48.832;9.422;2023-02-28T10:42:00;4.00;1.00
4787;DHT22;62338;48.832;9.422;2023-02-28T10:44:21;5.10;1.00
4787;DHT22;62338;48.832;9.422;2023-02-28T10:46:23;5.90;99.90
4787;DHT22;62338;48.832;9.422;2023-02-28T10:48:44;6.20;99.90
4787;DHT22;62338;48.832;9.422;2023-02-28T10:52:54;7.10;99.90
4787;DHT22;62338;48.832;9.422;2023-02-28T10:55:24;7.50;99.90
4787;DHT22;62338;48.832;9.422;2023-02-28T10:57:30;8.00;99.90
4787;DHT22;62338;48.832;9.422;2023-02-28T10:59:32;8.80;99.90
4787;DHT22;62338;48.832;9.422;2023-02-28T11:03:36;9.10;99.90
4787;DHT22;62338;48.832;9.422;2023-02-28T11:05:38;8.80;99.90
4787;DHT22;62338;48.832;9.422;2023-02-28T11:07:40;8.20;99.90
4787;DHT22;62338;48.832;9.422;2023-02-28T11:09:57;7.80;99.90
4787;DHT22;62338;48.832;9.422;2023-02-28T11:12:00;7.30;99.90
4787;DHT22;62338;48.832;9.422;2023-02-28T11:14:06;7.20;99.90
4787;DHT22;62338;48.832;9.422;2023-02-28T11:16:11;7.50;99.90
4787;DHT22;62338;48.832;9.422;2023-02-28T11:20:37;8.00;99.90
4787;DHT22;62338;48.832;9.422;2023-02-28T11:22:45;8.20;99.90
4787;DHT22;62338;48.832;9.422;2023-02-28T11:24:51;8.40;99.90
4787;DHT22;62338;48.832;9.422;2023-02-28T11:26:55;8.10;99.90
4787;DHT22;62338;48.832;9.422;2023-02-28T11:29:09;8.00;99.90
4787;DHT22;62338;48.832;9.422;2023-02-28T11:35:48;7.20;99.90
4787;DHT22;62338;48.832;9.422;2023-02-28T11:37:50;7.10;99.90
4787;DHT22;62338;48.832;9.422;2023-02-28T11:39:53;7.00;99.90
4787;DHT22;62338;48.832;9.422;2023-02-28T11:44:15;7.40;99.90
4787;DHT22;62338;48.832;9.422;2023-02-28T11:48:41;8.00;99.90
4787;DHT22;62338;48.832;9.422;2023-02-28T11:53:21;8.10;99.90
4787;DHT22;62338;48.832;9.422;2023-02-28T11:55:35;7.50;97.60
4787;DHT22;62338;48.832;9.422;2023-02-28T11:58:01;7.20;99.90
4787;DHT22;62338;48.832;9.422;2023-02-28T12:02:52;7.50;99.90
4787;DHT22;62338;48.832;9.422;2023-02-28T12:05:10;7.90;99.90
4787;DHT22;62338;48.832;9.422;2023-02-28T12:09:48;8.40;99.90
4787;DHT22;62338;48.832;9.422;2023-02-28T12:19:04;8.80;94.60
4787;DHT22;62338;48.832;9.422;2023-02-28T12:21:19;8.80;93.70
4787;DHT22;62338;48.832;9.422;2023-02-28T12:26:00;8.80;90.30
4787;DHT22;62338;48.832;9.422;2023-02-28T12:28:04;9.10;88.30
4787;DHT22;62338;48.832;9.422;2023-02-28T12:30:25;9.10;75.00
4787;DHT22;62338;48.832;9.422;2023-02-28T12:32:38;9.10;70.40
4787;DHT22;62338;48.832;9.422;2023-02-28T12:34:44;9.40;71.70
4787;DHT22;62338;48.832;9.422;2023-02-28T12:36:48;9.70;66.60
4787;DHT22;62338;48.832;9.422;2023-02-28T12:38:56;9.80;65.50
4787;DHT22;62338;48.832;9.422;2023-02-28T12:41:08;9.90;63.00
4787;DHT22;62338;48.832;9.422;2023-02-28T12:43:14;9.70;54.10
4787;DHT22;62338;48.832;9.422;2023-02-28T12:45:23;9.30;43.20
4787;DHT22;62338;48.832;9.422;2023-02-28T12:47:27;8.80;38.60
4787;DHT22;62338;48.832;9.422;2023-02-28T12:49:33;8.70;39.40
4787;DHT22;62338;48.832;9.422;2023-02-28T12:51:35;9.30;46.20
4787;DHT22;62338;48.832;9.422;2023-02-28T12:56:15;8.90;34.10
4787;DHT22;62338;48.832;9.422;2023-02-28T12:58:38;8.90;33.80
4787;DHT22;62338;48.832;9.422;2023-02-28T13:03:36;8.90;31.60
4787;DHT22;62338;48.832;9.422;2023-02-28T13:06:05;9.10;33.30
4787;DHT22;62338;48.832;9.422;2023-02-28T13:10:38;9.60;32.00
4787;DHT22;62338;48.832;9.422;2023-02-28T13:12:51;10.00;32.50
4787;DHT22;62338;48.832;9.422;2023-02-28T13:19:11;10.70;25.70
4787;DHT22;62338;48.832;9.422;2023-02-28T13:21:28;10.30;19.80
4787;DHT22;62338;48.832;9.422;2023-02-28T13:25:53;10.20;15.20
4787;DHT22;62338;48.832;9.422;2023-02-28T13:27:55;10.10;12.10
4787;DHT22;62338;48.832;9.422;2023-02-28T13:29:59;9.90;10.00
4787;DHT22;62338;48.832;9.422;2023-02-28T13:34:14;10.30;11.60
4787;DHT22;62338;48.832;9.422;2023-02-28T13:36:27;10.10;8.00
4787;DHT22;62338;48.832;9.422;2023-02-28T13:38:43;10.30;7.80
4787;DHT22;62338;48.832;9.422;2023-02-28T13:40:46;10.60;8.60
4787;DHT22;62338;48.832;9.422;2023-02-28T13:42:49;10.50;5.00
4787;DHT22;62338;48.832;9.422;2023-02-28T13:51:42;10.10;1.00
4787;DHT22;62338;48.832;9.422;2023-02-28T13:56:48;9.80;1.00
4787;DHT22;62338;48.832;9.422;2023-02-28T13:59:35;9.90;1.00
4787;DHT22;62338;48.832;9.422;2023-02-28T14:01:52;9.80;1.00
4787;DHT22;62338;48.832;9.422;2023-02-28T14:06:38;10.80;1.00
4787;DHT22;62338;48.832;9.422;2023-02-28T14:08:54;10.90;1.00
4787;DHT22;62338;48.832;9.422;2023-02-28T14:11:06;10.90;1.00
4787;DHT22;62338;48.832;9.422;2023-02-28T14:17:37;10.50;1.00
4787;DHT22;62338;48.832;9.422;2023-02-28T14:19:39;10.40;1.00
4787;DHT22;62338;48.832;9.422;2023-02-28T14:26:59;10.70;1.00
4787;DHT22;62338;48.832;9.422;2023-02-28T14:31:34;10.90;1.00
4787;DHT22;62338;48.832;9.422;2023-02-28T14:38:31;10.80;1.00
4787;DHT22;62338;48.832;9.422;2023-02-28T14:40:35;10.60;1.00
4787;DHT22;62338;48.832;9.422;2023-02-28T14:42:37;10.80;1.00
4787;DHT22;62338;48.832;9.422;2023-02-28T14:44:54;10.30;1.00
4787;DHT22;62338;48.832;9.422;2023-02-28T14:46:57;10.60;1.00
4787;DHT22;62338;48.832;9.422;2023-02-28T14:48:59;10.40;1.00
4787;DHT22;62338;48.832;9.422;2023-02-28T14:51:01;9.90;1.00
4787;DHT22;62338;48.832;9.422;2023-02-28T14:53:06;9.80;1.00
4787;DHT22;62338;48.832;9.422;2023-02-28T14:55:18;9.50;1.00
4787;DHT22;62338;48.832;9.422;2023-02-28T14:57:56;9.30;1.00
4787;DHT22;62338;48.832;9.422;2023-02-28T15:02:19;8.10;1.00
4787;DHT22;62338;48.832;9.422;2023-02-28T15:04:25;7.80;1.00
4787;DHT22;62338;48.832;9.422;2023-02-28T15:06:29;7.30;1.00
4787;DHT22;62338;48.832;9.422;2023-02-28T15:08:32;7.10;1.00
4787;DHT22;62338;48.832;9.422;2023-02-28T15:10:38;6.80;9.70
4787;DHT22;62338;48.832;9.422;2023-02-28T15:12:47;6.60;28.90
4787;DHT22;62338;48.832;9.422;2023-02-28T15:14:49;6.40;61.30
4787;DHT22;62338;48.832;9.422;2023-02-28T15:16:57;6.00;85.80
4787;DHT22;62338;48.832;9.422;2023-02-28T15:19:05;5.80;99.90
4787;DHT22;62338;48.832;9.422;2023-02-28T15:21:18;5.50;99.90
4787;DHT22;62338;48.832;9.422;2023-02-28T15:23:21;5.30;99.90
4787;DHT22;62338;48.832;9.422;2023-02-28T15:25:24;5.20;99.90
4787;DHT22;62338;48.832;9.422;2023-02-28T15:27:29;5.00;99.90
4787;DHT22;62338;48.832;9.422;2023-02-28T15:29:48;5.00;99.90
4787;DHT22;62338;48.832;9.422;2023-02-28T15:32:05;4.90;99.90
4787;DHT22;62338;48.832;9.422;2023-02-28T15:34:20;4.80;99.90
4787;DHT22;62338;48.832;9.422;2023-02-28T15:36:28;4.70;99.90